createdAt,value
2022-08-21T00:00:26.613Z,20.80
2022-08-21T00:03:09.128Z,20.76
2022-08-21T00:05:44.848Z,20.73
2022-08-21T00:08:13.491Z,20.70
2022-08-21T00:10:43.623Z,20.67
2022-08-21T00:13:13.088Z,20.66
2022-08-21T00:15:48.466Z,20.64
2022-08-21T00:18:17.239Z,20.61
2022-08-21T00:20:47.039Z,20.60
2022-08-21T00:23:16.215Z,20.59
2022-08-21T00:25:48.670Z,20.58
2022-08-21T00:28:17.648Z,20.57
2022-08-21T00:30:47.168Z,20.56
2022-08-21T00:33:15.959Z,20.56
2022-08-21T00:35:45.352Z,20.54
2022-08-21T00:38:13.925Z,20.54
2022-08-21T00:40:54.928Z,20.54
2022-08-21T00:43:30.665Z,20.53
2022-08-21T00:46:01.966Z,20.54
2022-08-21T00:48:30.113Z,20.55
2022-08-21T00:51:14.231Z,20.55
2022-08-21T00:53:48.087Z,20.55
2022-08-21T00:56:24.812Z,20.55
2022-08-21T00:58:58.280Z,20.55
2022-08-21T01:01:27.173Z,20.55
2022-08-21T01:03:55.468Z,20.54
2022-08-21T01:06:25.356Z,20.55
2022-08-21T01:08:53.469Z,20.55
2022-08-21T01:11:21.433Z,20.56
2022-08-21T01:13:50.382Z,20.56
2022-08-21T01:16:20.750Z,20.55
2022-08-21T01:18:49.970Z,20.56
2022-08-21T01:21:27.842Z,20.55
2022-08-21T01:23:58.057Z,20.53
2022-08-21T01:26:35.592Z,20.49
2022-08-21T01:29:44.773Z,20.46
2022-08-21T01:32:16.979Z,20.47
2022-08-21T01:34:47.877Z,20.48
2022-08-21T01:37:17.910Z,20.51
2022-08-21T01:39:47.586Z,20.53
2022-08-21T01:42:16.084Z,20.55
2022-08-21T01:44:45.028Z,20.56
2022-08-21T01:47:16.429Z,20.57
2022-08-21T01:49:46.595Z,20.58
2022-08-21T01:52:14.829Z,20.60
2022-08-21T01:54:43.039Z,20.61
2022-08-21T01:57:11.811Z,20.62
2022-08-21T01:59:40.622Z,20.63
2022-08-21T02:02:08.609Z,20.64
2022-08-21T02:04:36.618Z,20.61
2022-08-21T02:07:05.467Z,20.59
2022-08-21T02:09:36.451Z,20.55
2022-08-21T02:12:08.504Z,20.53
2022-08-21T02:14:36.679Z,20.49
2022-08-21T02:17:09.799Z,20.46
2022-08-21T02:19:40.654Z,20.42
2022-08-21T02:22:12.535Z,20.39
2022-08-21T02:24:54.712Z,20.34
2022-08-21T02:27:26.053Z,20.28
2022-08-21T02:29:57.860Z,20.23
2022-08-21T02:32:26.914Z,20.19
2022-08-21T02:34:55.407Z,20.15
2022-08-21T02:37:24.878Z,20.12
2022-08-21T02:39:53.319Z,20.08
2022-08-21T02:42:21.290Z,20.08
2022-08-21T02:44:49.365Z,20.10
2022-08-21T02:47:18.682Z,20.13
2022-08-21T02:49:46.927Z,20.15
2022-08-21T02:52:15.626Z,20.16
2022-08-21T02:54:43.832Z,20.18
2022-08-21T02:57:15.641Z,20.20
2022-08-21T02:59:43.765Z,20.21
2022-08-21T03:02:13.790Z,20.22
2022-08-21T03:04:46.405Z,20.22
2022-08-21T03:07:16.633Z,20.21
2022-08-21T03:09:55.148Z,20.20
2022-08-21T03:12:26.637Z,20.21
2022-08-21T03:14:58.946Z,20.20
2022-08-21T03:17:29.436Z,20.17
2022-08-21T03:19:58.756Z,20.14
2022-08-21T03:22:28.007Z,20.10
2022-08-21T03:24:59.811Z,20.07
2022-08-21T03:27:30.040Z,20.01
2022-08-21T03:29:58.912Z,19.91
2022-08-21T03:32:26.845Z,19.83
2022-08-21T03:34:54.748Z,19.77
2022-08-21T03:37:22.601Z,19.72
2022-08-21T03:39:50.504Z,19.68
2022-08-21T03:42:18.528Z,19.65
2022-08-21T03:44:46.495Z,19.62
2022-08-21T03:47:14.354Z,19.60
2022-08-21T03:49:42.451Z,19.61
2022-08-21T03:52:10.266Z,19.60
2022-08-21T03:54:38.038Z,19.59
2022-08-21T03:57:06.028Z,19.57
2022-08-21T03:59:33.851Z,19.55
2022-08-21T04:02:04.668Z,19.53
2022-08-21T04:04:33.139Z,19.51
2022-08-21T04:07:01.213Z,19.50
2022-08-21T04:09:29.438Z,19.54
2022-08-21T04:11:58.181Z,19.59
2022-08-21T04:14:26.341Z,19.58
2022-08-21T04:16:54.560Z,19.56
2022-08-21T04:19:22.484Z,19.55
2022-08-21T04:21:50.730Z,19.55
2022-08-21T04:24:20.492Z,19.54
2022-08-21T04:26:48.282Z,19.54
2022-08-21T04:29:16.252Z,19.56
2022-08-21T04:31:44.761Z,19.57
2022-08-21T04:34:13.459Z,19.55
2022-08-21T04:36:41.327Z,19.54
2022-08-21T04:39:10.109Z,19.53
2022-08-21T04:41:38.670Z,19.52
2022-08-21T04:44:07.763Z,19.53
2022-08-21T04:46:36.004Z,19.53
2022-08-21T04:49:03.893Z,19.52
2022-08-21T04:51:36.330Z,19.49
2022-08-21T04:54:12.397Z,19.48
2022-08-21T04:56:46.519Z,19.46
2022-08-21T04:59:19.327Z,19.44
2022-08-21T05:01:48.163Z,19.45
2022-08-21T05:04:20.089Z,19.44
2022-08-21T05:06:48.858Z,19.44
2022-08-21T05:09:19.635Z,19.44
2022-08-21T05:11:48.010Z,19.46
2022-08-21T05:14:17.069Z,19.46
2022-08-21T05:16:45.222Z,19.48
2022-08-21T05:19:13.620Z,19.50
2022-08-21T05:21:45.007Z,19.52
2022-08-21T05:24:13.177Z,19.53
2022-08-21T05:26:45.939Z,19.54
2022-08-21T05:29:16.762Z,19.55
2022-08-21T05:31:47.822Z,19.56
2022-08-21T05:34:20.146Z,19.58
2022-08-21T05:36:48.100Z,19.59
2022-08-21T05:39:16.088Z,19.60
2022-08-21T05:41:44.004Z,19.62
2022-08-21T05:44:11.804Z,19.61
2022-08-21T05:46:40.113Z,19.58
2022-08-21T05:49:08.052Z,19.55
2022-08-21T05:51:36.327Z,19.50
2022-08-21T05:54:04.413Z,19.46
2022-08-21T05:56:32.309Z,19.42
2022-08-21T05:59:00.206Z,19.38
2022-08-21T06:01:28.440Z,19.36
2022-08-21T06:03:59.738Z,19.33
2022-08-21T06:06:29.418Z,19.30
2022-08-21T06:08:57.248Z,19.30
2022-08-21T06:11:28.880Z,19.28
2022-08-21T06:13:57.823Z,19.28
2022-08-21T06:16:27.003Z,19.27
2022-08-21T06:18:57.523Z,19.28
2022-08-21T06:21:28.554Z,19.27
2022-08-21T06:23:56.697Z,19.26
2022-08-21T06:26:24.844Z,19.26
2022-08-21T06:28:52.728Z,19.26
2022-08-21T06:31:24.136Z,19.26
2022-08-21T06:33:53.084Z,19.24
2022-08-21T06:36:24.548Z,19.23
2022-08-21T06:38:52.420Z,19.23
2022-08-21T06:41:26.309Z,19.22
2022-08-21T06:43:56.600Z,19.21
2022-08-21T06:46:27.004Z,19.19
2022-08-21T06:48:55.806Z,19.18
2022-08-21T06:51:24.474Z,19.16
2022-08-21T06:53:54.235Z,19.14
2022-08-21T06:56:22.302Z,19.13
2022-08-21T06:58:50.226Z,19.11
2022-08-21T07:01:18.296Z,19.08
2022-08-21T07:03:47.024Z,19.07
2022-08-21T07:06:14.915Z,19.05
2022-08-21T07:08:42.868Z,19.03
2022-08-21T07:11:18.451Z,19.02
2022-08-21T07:13:46.698Z,19.02
2022-08-21T07:16:14.581Z,19.02
2022-08-21T07:18:42.522Z,19.00
2022-08-21T07:21:10.789Z,18.99
2022-08-21T07:23:46.104Z,18.98
2022-08-21T07:26:20.082Z,18.96
2022-08-21T07:28:51.414Z,18.96
2022-08-21T07:31:23.050Z,18.96
2022-08-21T07:33:54.707Z,18.96
2022-08-21T07:36:23.208Z,18.95
2022-08-21T07:38:52.873Z,18.94
2022-08-21T07:41:25.695Z,18.93
2022-08-21T07:43:53.777Z,18.93
2022-08-21T07:46:21.948Z,18.93
2022-08-21T07:48:49.831Z,18.92
2022-08-21T07:51:22.184Z,18.93
2022-08-21T07:53:52.113Z,18.94
2022-08-21T07:56:20.654Z,18.94
2022-08-21T07:58:49.241Z,18.94
2022-08-21T08:01:17.887Z,18.94
2022-08-21T08:03:46.260Z,18.93
2022-08-21T08:06:14.034Z,18.93
2022-08-21T08:08:42.953Z,18.94
2022-08-21T08:11:12.025Z,18.94
2022-08-21T08:13:46.818Z,18.95
2022-08-21T08:16:16.181Z,18.95
2022-08-21T08:18:45.440Z,18.95
2022-08-21T08:21:14.239Z,18.95
2022-08-21T08:23:42.192Z,18.95
2022-08-21T08:26:10.057Z,18.96
2022-08-21T08:28:40.625Z,18.97
2022-08-21T08:31:08.718Z,18.99
2022-08-21T08:33:36.664Z,19.01
2022-08-21T08:36:08.117Z,19.02
2022-08-21T08:38:36.258Z,19.04
2022-08-21T08:41:30.742Z,19.05
2022-08-21T08:44:05.969Z,19.05
2022-08-21T08:46:53.668Z,19.05
2022-08-21T08:49:38.089Z,19.04
2022-08-21T08:52:35.998Z,19.04
2022-08-21T08:55:41.172Z,19.03
2022-08-21T08:58:25.601Z,19.03
2022-08-21T09:00:56.144Z,19.04
2022-08-21T09:03:26.280Z,19.05
2022-08-21T09:06:06.517Z,19.06
2022-08-21T09:09:12.457Z,19.07
2022-08-21T09:11:50.495Z,19.07
2022-08-21T09:15:14.223Z,19.07
2022-08-21T09:18:16.017Z,19.07
2022-08-21T09:21:22.023Z,19.06
2022-08-21T09:24:11.858Z,19.04
2022-08-21T09:27:11.054Z,19.03
2022-08-21T09:29:53.854Z,19.01
2022-08-21T09:32:37.809Z,18.99
2022-08-21T09:35:12.812Z,18.97
2022-08-21T09:37:57.685Z,18.96
2022-08-21T09:40:42.876Z,18.93
2022-08-21T09:43:13.720Z,18.92
2022-08-21T09:45:43.859Z,18.92
2022-08-21T09:48:32.550Z,18.92
2022-08-21T09:51:13.692Z,18.91
2022-08-21T09:53:49.908Z,18.90
2022-08-21T09:56:49.174Z,18.90
2022-08-21T09:59:21.136Z,18.90
2022-08-21T10:01:52.363Z,18.90
2022-08-21T10:04:33.399Z,18.91
2022-08-21T10:07:08.990Z,18.92
2022-08-21T10:09:37.411Z,18.92
2022-08-21T10:12:05.370Z,18.93
2022-08-21T10:15:22.162Z,18.94
2022-08-21T10:18:27.655Z,18.96
2022-08-21T10:21:25.033Z,18.97
2022-08-21T10:24:31.042Z,18.97
2022-08-21T10:27:39.396Z,18.96
2022-08-21T10:30:28.392Z,18.96
2022-08-21T10:33:14.235Z,18.98
2022-08-21T10:36:00.192Z,18.99
2022-08-21T10:39:17.453Z,19.00
2022-08-21T10:42:14.177Z,19.02
2022-08-21T10:45:10.042Z,19.05
2022-08-21T10:47:52.945Z,19.08
2022-08-21T10:50:43.343Z,19.11
2022-08-21T10:53:20.169Z,19.13
2022-08-21T10:56:02.946Z,19.17
2022-08-21T10:58:58.602Z,19.21
2022-08-21T11:01:54.850Z,19.25
2022-08-21T11:04:46.281Z,19.28
2022-08-21T11:07:50.521Z,19.31
2022-08-21T11:10:26.110Z,19.33
2022-08-21T11:13:12.891Z,19.35
2022-08-21T11:16:03.799Z,19.36
2022-08-21T11:18:39.308Z,19.36
2022-08-21T11:21:25.630Z,19.39
2022-08-21T11:24:30.399Z,19.40
2022-08-21T11:27:34.426Z,19.42
2022-08-21T11:30:06.723Z,19.44
2022-08-21T11:33:05.664Z,19.46
2022-08-21T11:36:05.286Z,19.48
2022-08-21T11:39:09.201Z,19.50
2022-08-21T11:41:56.672Z,19.53
2022-08-21T11:45:12.930Z,19.57
2022-08-21T11:48:38.025Z,19.61
2022-08-21T11:51:30.221Z,19.64
2022-08-21T11:54:21.406Z,19.66
2022-08-21T11:57:41.750Z,19.70
2022-08-21T12:00:36.364Z,19.75
2022-08-21T12:03:29.522Z,19.78
2022-08-21T12:06:11.365Z,19.80
2022-08-21T12:08:43.016Z,19.84
2022-08-21T12:11:19.988Z,19.89
2022-08-21T12:14:07.168Z,19.94
2022-08-21T12:16:39.821Z,19.99
2022-08-21T12:19:26.328Z,20.02
2022-08-21T12:22:18.234Z,20.06
2022-08-21T12:24:51.099Z,20.09
2022-08-21T12:27:27.490Z,20.11
2022-08-21T12:30:05.459Z,20.14
2022-08-21T12:32:57.762Z,20.17
2022-08-21T12:35:37.663Z,20.18
2022-08-21T12:38:20.551Z,20.21
2022-08-21T12:41:16.150Z,20.23
2022-08-21T12:44:18.228Z,20.24
2022-08-21T12:46:59.715Z,20.25
2022-08-21T12:49:37.172Z,20.25
2022-08-21T12:52:49.964Z,20.26
2022-08-21T12:55:31.733Z,20.28
2022-08-21T12:58:03.775Z,20.30
2022-08-21T13:00:31.761Z,20.32
2022-08-21T13:03:00.693Z,20.33
2022-08-21T13:05:36.104Z,20.34
2022-08-21T13:08:07.302Z,20.35
2022-08-21T13:10:36.383Z,20.36
2022-08-21T13:13:28.140Z,20.36
2022-08-21T13:16:06.067Z,20.38
2022-08-21T13:19:03.171Z,20.40
2022-08-21T13:21:44.608Z,20.42
2022-08-21T13:24:41.155Z,20.45
2022-08-21T13:27:24.306Z,20.47
2022-08-21T13:30:34.919Z,20.50
2022-08-21T13:33:12.275Z,20.52
2022-08-21T13:35:50.694Z,20.55
2022-08-21T13:38:26.691Z,20.58
2022-08-21T13:41:26.923Z,20.60
2022-08-21T13:44:07.367Z,20.63
2022-08-21T13:46:38.087Z,20.67
2022-08-21T13:49:11.821Z,20.69
2022-08-21T13:51:52.764Z,20.72
2022-08-21T13:54:40.889Z,20.74
2022-08-21T13:57:25.389Z,20.76
2022-08-21T14:00:28.195Z,20.76
2022-08-21T14:03:06.359Z,20.76
2022-08-21T14:05:45.689Z,20.77
2022-08-21T14:08:37.184Z,20.76
2022-08-21T14:11:12.503Z,20.75
2022-08-21T14:14:06.505Z,20.74
2022-08-21T14:17:24.089Z,20.73
2022-08-21T14:19:56.003Z,20.71
2022-08-21T14:22:39.390Z,20.70
2022-08-21T14:25:18.661Z,20.67
2022-08-21T14:27:56.388Z,20.66
2022-08-21T14:30:41.227Z,20.63
2022-08-21T14:33:16.617Z,20.61
2022-08-21T14:35:46.236Z,20.57
2022-08-21T14:38:29.842Z,20.53
2022-08-21T14:41:28.721Z,20.47
2022-08-21T14:44:08.129Z,20.40
2022-08-21T14:46:56.012Z,20.34
2022-08-21T14:49:28.511Z,20.24
2022-08-21T14:51:58.862Z,20.11
2022-08-21T14:54:32.996Z,20.00
2022-08-21T14:57:10.082Z,19.90
2022-08-21T14:59:38.719Z,19.82
2022-08-21T15:02:15.137Z,19.74
2022-08-21T15:04:43.573Z,19.67
2022-08-21T15:07:11.496Z,19.60
2022-08-21T15:09:39.624Z,19.54
2022-08-21T15:12:08.201Z,19.51
2022-08-21T15:14:39.444Z,19.54
2022-08-21T15:17:10.141Z,19.55
2022-08-21T15:19:38.553Z,19.55
2022-08-21T15:22:06.549Z,19.55
2022-08-21T15:24:43.869Z,19.54
2022-08-21T15:27:19.919Z,19.52
2022-08-21T15:29:48.055Z,19.51
2022-08-21T15:32:17.713Z,19.49
2022-08-21T15:35:01.234Z,19.47
2022-08-21T15:37:29.130Z,19.46
2022-08-21T15:39:57.305Z,19.44
2022-08-21T15:42:27.879Z,19.43
2022-08-21T15:44:57.573Z,19.40
2022-08-21T15:47:35.212Z,19.36
2022-08-21T15:50:08.080Z,19.29
2022-08-21T15:52:38.628Z,19.22
2022-08-21T15:55:07.880Z,19.17
2022-08-21T15:57:37.390Z,19.12
2022-08-21T16:00:19.389Z,19.04
2022-08-21T16:02:54.178Z,18.98
2022-08-21T16:05:23.449Z,19.02
2022-08-21T16:07:52.710Z,19.07
2022-08-21T16:10:23.613Z,19.11
2022-08-21T16:13:00.899Z,19.13
2022-08-21T16:15:29.103Z,19.13
2022-08-21T16:17:57.563Z,19.09
2022-08-21T16:20:29.425Z,19.06
2022-08-21T16:22:58.897Z,19.01
2022-08-21T16:25:27.307Z,18.94
2022-08-21T16:28:01.758Z,18.89
2022-08-21T16:30:31.052Z,18.85
2022-08-21T16:33:03.604Z,18.87
2022-08-21T16:35:31.600Z,18.90
2022-08-21T16:37:59.957Z,18.92
2022-08-21T16:40:28.658Z,18.94
2022-08-21T16:42:56.918Z,18.95
2022-08-21T16:45:25.751Z,18.97
2022-08-21T16:47:55.625Z,18.99
2022-08-21T16:50:24.722Z,19.00
2022-08-21T16:52:53.346Z,19.01
2022-08-21T16:55:22.498Z,19.01
2022-08-21T16:57:50.511Z,19.03
2022-08-21T17:00:18.369Z,19.04
2022-08-21T17:02:51.156Z,19.05
2022-08-21T17:05:19.732Z,19.06
2022-08-21T17:07:47.785Z,19.07
2022-08-21T17:10:16.957Z,19.07
2022-08-21T17:12:51.484Z,19.09
2022-08-21T17:15:24.594Z,19.10
2022-08-21T17:17:52.905Z,19.10
2022-08-21T17:20:21.268Z,19.11
2022-08-21T17:22:49.697Z,19.11
2022-08-21T17:25:17.727Z,19.12
2022-08-21T17:27:48.527Z,19.13
2022-08-21T17:30:17.798Z,19.14
2022-08-21T17:32:47.411Z,19.14
2022-08-21T17:35:44.412Z,19.14
2022-08-21T17:38:14.838Z,19.15
2022-08-21T17:43:38.336Z,19.16
2022-08-21T17:46:09.147Z,19.16
2022-08-21T17:48:38.451Z,19.15
2022-08-21T17:51:18.505Z,19.15
2022-08-21T17:53:46.634Z,19.16
2022-08-21T17:56:16.290Z,19.16
2022-08-21T17:58:55.048Z,19.17
2022-08-21T18:01:26.463Z,19.18
2022-08-21T18:03:59.651Z,19.18
2022-08-21T18:06:28.022Z,19.19
2022-08-21T18:09:01.047Z,19.18
2022-08-21T18:11:30.860Z,19.19
2022-08-21T18:14:07.625Z,19.18
2022-08-21T18:16:38.655Z,19.18
2022-08-21T18:19:12.008Z,19.18
2022-08-21T18:21:40.130Z,19.18
2022-08-21T18:24:07.994Z,19.18
2022-08-21T18:26:38.309Z,19.18
2022-08-21T18:29:09.143Z,19.19
2022-08-21T18:31:38.970Z,19.18
2022-08-21T18:34:27.026Z,19.18
2022-08-21T18:36:55.516Z,19.16
2022-08-21T18:39:36.382Z,19.14
2022-08-21T18:42:11.791Z,19.13
2022-08-21T18:44:41.378Z,19.11
2022-08-21T18:47:37.300Z,19.10
2022-08-21T18:50:10.189Z,19.07
2022-08-21T18:52:41.835Z,19.05
2022-08-21T18:55:29.409Z,19.04
2022-08-21T18:57:58.091Z,19.03
2022-08-21T19:00:31.684Z,19.02
2022-08-21T19:03:00.838Z,19.01
2022-08-21T19:05:28.940Z,19.00
2022-08-21T19:07:57.453Z,18.98
2022-08-21T19:10:29.585Z,18.97
2022-08-21T19:12:59.695Z,18.96
2022-08-21T19:15:28.533Z,18.94
2022-08-21T19:17:59.016Z,18.92
2022-08-21T19:20:32.753Z,18.90
2022-08-21T19:23:02.472Z,18.89
2022-08-21T19:25:33.255Z,18.87
2022-08-21T19:28:10.751Z,18.86
2022-08-21T19:30:45.967Z,18.85
2022-08-21T19:33:23.677Z,18.83
2022-08-21T19:35:53.495Z,18.81
2022-08-21T19:38:22.095Z,18.80
2022-08-21T19:40:50.765Z,18.77
2022-08-21T19:43:23.122Z,18.76
2022-08-21T19:45:54.640Z,18.74
2022-08-21T19:48:26.570Z,18.72
2022-08-21T19:51:07.889Z,18.70
2022-08-21T19:53:44.613Z,18.67
2022-08-21T19:56:24.191Z,18.66
2022-08-21T19:58:54.459Z,18.64
2022-08-21T20:01:25.810Z,18.62
2022-08-21T20:03:57.169Z,18.60
2022-08-21T20:06:26.172Z,18.58
2022-08-21T20:08:55.346Z,18.57
2022-08-21T20:11:45.003Z,18.56
2022-08-21T20:14:20.329Z,18.54
2022-08-21T20:16:53.690Z,18.52
2022-08-21T20:20:25.226Z,18.51
2022-08-21T20:23:09.701Z,18.48
2022-08-21T20:25:40.703Z,18.46
2022-08-21T20:28:13.274Z,18.45
2022-08-21T20:30:48.417Z,18.43
2022-08-21T20:33:18.530Z,18.41
2022-08-21T20:35:50.362Z,18.40
2022-08-21T20:38:20.595Z,18.39
2022-08-21T20:40:51.799Z,18.37
2022-08-21T20:46:23.219Z,18.35
2022-08-21T20:48:51.584Z,18.35
2022-08-21T20:51:36.258Z,18.35
2022-08-21T20:54:16.470Z,18.35
2022-08-21T20:57:13.824Z,18.35
2022-08-21T20:59:52.211Z,18.34
2022-08-21T21:02:48.745Z,18.33
2022-08-21T21:05:51.477Z,18.32
2022-08-21T21:08:30.165Z,18.31
2022-08-21T21:11:21.686Z,18.30
2022-08-21T21:14:08.185Z,18.29
2022-08-21T21:16:51.727Z,18.29
2022-08-21T21:20:03.994Z,18.28
2022-08-21T21:22:42.001Z,18.26
2022-08-21T21:25:22.939Z,18.25
2022-08-21T21:28:01.393Z,18.25
2022-08-21T21:30:46.662Z,18.26
2022-08-21T21:33:30.596Z,18.25
2022-08-21T21:36:08.576Z,18.25
2022-08-21T21:38:51.882Z,18.25
2022-08-21T21:41:29.348Z,18.26
2022-08-21T21:44:03.028Z,18.26
2022-08-21T21:46:58.362Z,18.27
2022-08-21T21:50:01.906Z,18.28
2022-08-21T21:52:48.226Z,18.29
2022-08-21T21:55:59.466Z,18.30
2022-08-21T21:58:56.082Z,18.31
2022-08-21T22:01:47.087Z,18.33
2022-08-21T22:04:46.869Z,18.34
2022-08-21T22:07:32.121Z,18.34
2022-08-21T22:10:44.856Z,18.34
2022-08-21T22:13:39.512Z,18.35
2022-08-21T22:16:07.797Z,18.36
2022-08-21T22:19:00.700Z,18.36
2022-08-21T22:21:34.958Z,18.37
2022-08-21T22:24:16.889Z,18.39
2022-08-21T22:26:50.073Z,18.39
2022-08-21T22:29:22.598Z,18.39
2022-08-21T22:32:08.137Z,18.39
2022-08-21T22:34:36.009Z,18.39
2022-08-21T22:37:09.070Z,18.39
2022-08-21T22:39:46.077Z,18.39
2022-08-21T22:42:24.824Z,18.38
2022-08-21T22:44:57.351Z,18.38
2022-08-21T22:47:37.715Z,18.38
2022-08-21T22:50:19.924Z,18.38
2022-08-21T22:52:52.828Z,18.38
2022-08-21T22:55:46.542Z,18.38
2022-08-21T22:58:21.526Z,18.39
2022-08-21T23:00:58.349Z,18.39
2022-08-21T23:03:52.638Z,18.39
2022-08-21T23:06:56.329Z,18.39
2022-08-21T23:09:30.766Z,18.39
2022-08-21T23:12:14.152Z,18.40
2022-08-21T23:14:54.867Z,18.40
2022-08-21T23:17:45.531Z,18.40
2022-08-21T23:21:01.947Z,18.40
2022-08-21T23:23:35.456Z,18.39
2022-08-21T23:26:22.671Z,18.40
2022-08-21T23:29:24.946Z,18.40
2022-08-21T23:32:08.446Z,18.39
2022-08-21T23:34:57.722Z,18.39
2022-08-21T23:38:09.339Z,18.38
2022-08-21T23:40:51.071Z,18.37
2022-08-21T23:43:41.749Z,18.37
2022-08-21T23:46:16.338Z,18.36
2022-08-21T23:49:28.439Z,18.36
2022-08-21T23:52:19.937Z,18.36
2022-08-21T23:55:14.724Z,18.35
2022-08-21T23:58:13.312Z,18.36
